createdAt,value
2024-04-08T00:00:00.472Z,46.2
2024-04-08T00:01:00.400Z,46.3
2024-04-08T00:02:00.419Z,46.6
2024-04-08T00:03:00.522Z,46.5
2024-04-08T00:04:00.424Z,46.6
2024-04-08T00:05:00.412Z,46.5
2024-04-08T00:06:00.409Z,46.7
2024-04-08T00:07:00.414Z,47.0
2024-04-08T00:08:00.426Z,46.9
2024-04-08T00:09:00.424Z,46.7
2024-04-08T00:10:02.030Z,46.6
2024-04-08T00:11:07.659Z,46.8
2024-04-08T00:12:00.422Z,46.8
2024-04-08T00:13:00.793Z,46.9
2024-04-08T00:14:00.476Z,49.3
2024-04-08T00:15:00.455Z,49.5
2024-04-08T00:16:00.412Z,48.3
2024-04-08T00:17:00.408Z,48.6
2024-04-08T00:18:01.439Z,48.7
2024-04-08T00:19:00.435Z,48.4
2024-04-08T00:20:00.636Z,50.2
2024-04-08T00:21:01.399Z,51.1
2024-04-08T00:22:00.431Z,51.3
2024-04-08T00:23:00.420Z,51.4
2024-04-08T00:24:00.448Z,54.3
2024-04-08T00:25:00.493Z,56.9
2024-04-08T00:26:03.911Z,57.1
2024-04-08T00:27:00.406Z,57.0
2024-04-08T00:28:00.405Z,57.9
2024-04-08T00:29:00.436Z,57.7
2024-04-08T00:30:00.401Z,57.8
2024-04-08T00:31:01.946Z,57.8
2024-04-08T00:32:00.433Z,59.2
2024-04-08T00:33:00.493Z,61.7
2024-04-08T00:34:00.414Z,63.4
2024-04-08T00:35:00.739Z,64.6
2024-04-08T00:36:00.956Z,63.7
2024-04-08T00:37:00.409Z,62.7
2024-04-08T00:38:00.420Z,61.0
2024-04-08T00:39:00.415Z,60.1
2024-04-08T00:40:00.541Z,59.6
2024-04-08T00:41:00.420Z,59.7
2024-04-08T00:42:00.850Z,59.4
2024-04-08T00:43:00.414Z,58.2
2024-04-08T00:44:00.456Z,57.2
2024-04-08T00:45:00.428Z,57.7
2024-04-08T00:46:00.863Z,58.4
2024-04-08T00:47:00.420Z,59.1
2024-04-08T00:48:00.478Z,59.2
2024-04-08T00:49:00.576Z,60.6
2024-04-08T00:50:00.795Z,61.8
2024-04-08T00:51:00.593Z,62.4
2024-04-08T00:52:00.586Z,62.7
2024-04-08T00:53:00.493Z,61.9
2024-04-08T00:54:00.498Z,61.6
2024-04-08T00:55:00.494Z,62.3
2024-04-08T00:56:00.531Z,63.4
2024-04-08T00:57:03.342Z,63.6
2024-04-08T00:58:01.695Z,63.3
2024-04-08T00:59:01.435Z,62.3
2024-04-08T01:00:00.821Z,61.7
2024-04-08T01:01:01.418Z,61.8
2024-04-08T01:02:00.965Z,62.1
2024-04-08T01:03:00.885Z,60.8
2024-04-08T01:04:00.426Z,61.0
2024-04-08T01:05:00.461Z,61.9
2024-04-08T01:06:00.656Z,62.2
2024-04-08T01:07:00.796Z,62.5
2024-04-08T01:08:01.352Z,62.8
2024-04-08T01:09:00.719Z,63.2
2024-04-08T01:10:00.487Z,63.7
2024-04-08T01:11:00.686Z,63.1
2024-04-08T01:12:00.878Z,63.3
2024-04-08T01:13:00.457Z,63.7
2024-04-08T01:14:00.438Z,64.1
2024-04-08T01:15:01.112Z,63.4
2024-04-08T01:16:00.982Z,65.3
2024-04-08T01:17:00.432Z,65.4
2024-04-08T01:18:00.422Z,65.7
2024-04-08T01:19:00.421Z,65.4
2024-04-08T01:20:00.622Z,66.0
2024-04-08T01:21:00.693Z,65.5
2024-04-08T01:22:00.421Z,64.9
2024-04-08T01:23:01.452Z,65.3
2024-04-08T01:24:00.451Z,65.6
2024-04-08T01:25:00.665Z,64.8
2024-04-08T01:26:00.429Z,64.0
2024-04-08T01:27:00.642Z,63.4
2024-04-08T01:28:01.111Z,62.6
2024-04-08T01:29:00.411Z,63.8
2024-04-08T01:30:00.469Z,64.5
2024-04-08T01:31:00.450Z,64.2
2024-04-08T01:32:00.444Z,64.3
2024-04-08T01:33:00.446Z,64.8
2024-04-08T01:34:00.468Z,64.8
2024-04-08T01:35:00.418Z,64.2
2024-04-08T01:36:00.868Z,64.0
2024-04-08T01:37:00.413Z,63.4
2024-04-08T01:38:00.410Z,63.2
2024-04-08T01:39:00.450Z,62.8
2024-04-08T01:40:00.421Z,62.8
2024-04-08T01:41:00.446Z,62.9
2024-04-08T01:42:00.425Z,63.3
2024-04-08T01:43:00.420Z,62.6
2024-04-08T01:44:00.447Z,61.9
2024-04-08T01:45:00.416Z,61.4
2024-04-08T01:46:00.437Z,61.3
2024-04-08T01:47:00.414Z,61.3
2024-04-08T01:48:00.520Z,61.5
2024-04-08T01:49:00.427Z,61.2
2024-04-08T01:50:00.419Z,61.5
2024-04-08T01:51:00.424Z,61.0
2024-04-08T01:52:00.411Z,62.3
2024-04-08T01:53:00.435Z,62.2
2024-04-08T01:54:00.521Z,62.2
2024-04-08T01:55:00.434Z,63.3
2024-04-08T01:56:00.431Z,63.4
2024-04-08T01:57:00.468Z,63.6
2024-04-08T01:58:00.433Z,64.0
2024-04-08T01:59:00.440Z,64.9
2024-04-08T02:00:00.433Z,64.6
2024-04-08T02:01:00.476Z,64.3
2024-04-08T02:02:00.444Z,64.8
2024-04-08T02:03:00.408Z,64.9
2024-04-08T02:04:00.454Z,65.9
2024-04-08T02:05:00.438Z,66.1
2024-04-08T02:06:00.583Z,65.3
2024-04-08T02:07:00.404Z,66.5
2024-04-08T02:08:00.447Z,67.4
2024-04-08T02:09:00.440Z,67.5
2024-04-08T02:10:00.473Z,67.6
2024-04-08T02:11:00.468Z,67.5
2024-04-08T02:12:00.615Z,67.5
2024-04-08T02:13:00.463Z,67.3
2024-04-08T02:14:00.487Z,67.4
2024-04-08T02:15:00.606Z,67.2
2024-04-08T02:16:00.492Z,67.3
2024-04-08T02:17:00.557Z,67.2
2024-04-08T02:18:00.650Z,66.8
2024-04-08T02:19:00.475Z,67.0
2024-04-08T02:20:00.514Z,67.8
2024-04-08T02:21:01.142Z,68.1
2024-04-08T02:22:00.491Z,67.9
2024-04-08T02:23:00.538Z,67.0
2024-04-08T02:24:00.608Z,65.9
2024-04-08T02:25:00.711Z,66.5
2024-04-08T02:26:00.572Z,67.9
2024-04-08T02:27:00.531Z,67.9
2024-04-08T02:28:00.676Z,68.5
2024-04-08T02:29:00.602Z,69.3
2024-04-08T02:30:00.629Z,69.9
2024-04-08T02:31:01.357Z,70.1
2024-04-08T02:32:00.608Z,69.4
2024-04-08T02:33:00.624Z,68.6
2024-04-08T02:34:00.602Z,67.9
2024-04-08T02:35:01.438Z,67.9
2024-04-08T02:36:02.279Z,68.5
2024-04-08T02:37:00.564Z,67.7
2024-04-08T02:38:00.723Z,67.1
2024-04-08T02:39:00.597Z,66.6
2024-04-08T02:40:00.646Z,66.7
2024-04-08T02:41:00.570Z,65.5
2024-04-08T02:42:00.577Z,65.1
2024-04-08T02:43:00.851Z,65.4
2024-04-08T02:44:00.571Z,65.4
2024-04-08T02:45:00.643Z,65.7
2024-04-08T02:46:00.585Z,65.0
2024-04-08T02:47:00.593Z,66.0
2024-04-08T02:48:00.646Z,66.6
2024-04-08T02:49:00.605Z,65.7
2024-04-08T02:50:00.651Z,66.2
2024-04-08T02:51:00.595Z,66.7
2024-04-08T02:52:00.649Z,66.5
2024-04-08T02:53:00.584Z,67.4
2024-04-08T02:54:00.572Z,67.1
2024-04-08T02:55:00.687Z,66.1
2024-04-08T02:56:00.835Z,65.9
2024-04-08T02:57:00.537Z,66.9
2024-04-08T02:58:00.575Z,68.5
2024-04-08T02:59:00.559Z,68.4
2024-04-08T03:00:00.551Z,67.6
2024-04-08T03:01:02.474Z,67.0
2024-04-08T03:02:00.564Z,66.7
2024-04-08T03:03:00.613Z,66.4
2024-04-08T03:04:00.569Z,66.4
2024-04-08T03:05:00.544Z,66.8
2024-04-08T03:07:00.612Z,68.5
2024-04-08T03:08:00.554Z,70.4
2024-04-08T03:09:00.921Z,69.9
2024-04-08T03:10:00.620Z,70.0
2024-04-08T03:11:00.571Z,70.9
2024-04-08T03:12:00.562Z,70.8
2024-04-08T03:13:00.559Z,71.1
2024-04-08T03:14:00.667Z,71.3
2024-04-08T03:15:00.788Z,71.1
2024-04-08T03:16:00.508Z,71.5
2024-04-08T03:17:00.493Z,71.8
2024-04-08T03:18:00.463Z,71.9
2024-04-08T03:19:00.488Z,71.8
2024-04-08T03:20:00.531Z,72.3
2024-04-08T03:21:02.020Z,72.0
2024-04-08T03:22:00.670Z,71.5
2024-04-08T03:23:00.481Z,71.9
2024-04-08T03:24:00.498Z,72.4
2024-04-08T03:25:00.449Z,73.2
2024-04-08T03:27:00.421Z,73.1
2024-04-08T03:28:00.403Z,71.8
2024-04-08T03:29:00.577Z,70.9
2024-04-08T03:30:00.670Z,69.6
2024-04-08T03:31:02.294Z,69.4
2024-04-08T03:32:00.436Z,69.8
2024-04-08T03:33:00.514Z,69.6
2024-04-08T03:34:00.451Z,69.2
2024-04-08T03:35:00.422Z,68.6
2024-04-08T03:36:01.207Z,68.2
2024-04-08T03:37:00.428Z,68.5
2024-04-08T03:38:00.411Z,68.8
2024-04-08T03:39:00.442Z,69.9
2024-04-08T03:40:00.490Z,70.7
2024-04-08T03:41:01.356Z,71.5
2024-04-08T03:42:00.424Z,72.0
2024-04-08T03:43:00.410Z,72.7
2024-04-08T03:44:00.407Z,73.2
2024-04-08T03:45:00.421Z,72.7
2024-04-08T03:46:00.442Z,73.8
2024-04-08T03:47:00.407Z,74.4
2024-04-08T03:48:00.576Z,74.6
2024-04-08T03:49:00.418Z,75.2
2024-04-08T03:50:00.504Z,75.6
2024-04-08T03:51:08.342Z,76.1
2024-04-08T03:52:00.397Z,75.9
2024-04-08T03:53:00.564Z,75.5
2024-04-08T03:54:00.410Z,74.4
2024-04-08T03:55:00.449Z,74.5
2024-04-08T03:56:04.501Z,74.4
2024-04-08T03:57:00.473Z,74.0
2024-04-08T03:58:00.416Z,73.6
2024-04-08T03:59:00.402Z,73.9
2024-04-08T04:00:00.495Z,74.6
2024-04-08T04:01:00.416Z,75.3
2024-04-08T04:02:00.489Z,75.5
2024-04-08T04:03:00.472Z,75.5
2024-04-08T04:04:00.408Z,74.9
2024-04-08T04:05:00.444Z,75.4
2024-04-08T04:06:00.425Z,76.4
2024-04-08T04:07:00.456Z,75.9
2024-04-08T04:08:00.407Z,75.4
2024-04-08T04:09:00.447Z,76.5
2024-04-08T04:10:00.495Z,76.3
2024-04-08T04:11:00.429Z,75.7
2024-04-08T04:12:00.417Z,75.3
2024-04-08T04:13:00.469Z,75.0
2024-04-08T04:14:00.432Z,74.4
2024-04-08T04:15:00.760Z,74.2
2024-04-08T04:16:03.697Z,75.1
2024-04-08T04:17:00.433Z,75.3
2024-04-08T04:18:00.580Z,75.1
2024-04-08T04:19:00.428Z,75.4
2024-04-08T04:20:00.780Z,75.2
2024-04-08T04:21:00.459Z,75.0
2024-04-08T04:22:00.422Z,74.7
2024-04-08T04:23:00.421Z,74.0
2024-04-08T04:24:00.481Z,73.4
2024-04-08T04:25:00.533Z,74.4
2024-04-08T04:26:00.451Z,74.1
2024-04-08T04:27:00.450Z,74.0
2024-04-08T04:28:00.455Z,73.7
2024-04-08T04:29:00.409Z,74.9
2024-04-08T04:30:00.522Z,75.9
2024-04-08T04:31:03.189Z,76.2
2024-04-08T04:32:00.567Z,76.4
2024-04-08T04:33:00.618Z,76.2
2024-04-08T04:34:00.453Z,75.9
2024-04-08T04:35:00.446Z,75.6
2024-04-08T04:36:00.557Z,75.4
2024-04-08T04:37:00.426Z,76.0
2024-04-08T04:38:00.461Z,76.7
2024-04-08T04:39:00.678Z,77.6
2024-04-08T04:40:00.437Z,77.4
2024-04-08T04:42:00.519Z,77.6
2024-04-08T04:43:00.469Z,77.7
2024-04-08T04:44:00.462Z,77.7
2024-04-08T04:45:00.552Z,77.7
2024-04-08T04:46:00.479Z,77.0
2024-04-08T04:47:00.434Z,76.6
2024-04-08T04:48:00.506Z,76.4
2024-04-08T04:49:00.406Z,75.6
2024-04-08T04:50:00.448Z,75.1
2024-04-08T04:51:00.464Z,75.7
2024-04-08T04:52:00.443Z,75.8
2024-04-08T04:53:00.422Z,76.5
2024-04-08T04:54:00.493Z,77.2
2024-04-08T04:55:00.602Z,78.0
2024-04-08T04:56:00.411Z,78.3
2024-04-08T04:57:00.450Z,78.6
2024-04-08T04:58:00.457Z,77.9
2024-04-08T04:59:00.852Z,77.1
2024-04-08T05:00:00.513Z,76.7
2024-04-08T05:01:00.421Z,75.4
2024-04-08T05:02:00.401Z,75.0
2024-04-08T05:03:00.727Z,74.3
2024-04-08T05:04:00.458Z,73.7
2024-04-08T05:05:00.515Z,73.4
2024-04-08T05:06:00.636Z,73.7
2024-04-08T05:07:00.440Z,73.9
2024-04-08T05:08:00.469Z,74.1
2024-04-08T05:09:00.537Z,74.8
2024-04-08T05:10:00.425Z,75.7
2024-04-08T05:11:00.563Z,75.8
2024-04-08T05:12:00.523Z,75.4
2024-04-08T05:13:00.454Z,75.3
2024-04-08T05:14:00.409Z,74.7
2024-04-08T05:19:01.178Z,73.2
2024-04-08T05:20:00.454Z,73.7
2024-04-08T05:21:00.599Z,74.1
2024-04-08T05:22:00.415Z,73.4
2024-04-08T05:23:00.825Z,72.7
2024-04-08T05:24:00.671Z,72.9
2024-04-08T05:25:00.579Z,72.6
2024-04-08T05:26:00.759Z,72.2
2024-04-08T05:27:00.641Z,71.6
2024-04-08T05:28:00.503Z,72.2
2024-04-08T05:29:00.526Z,71.8
2024-04-08T05:30:00.739Z,71.7
2024-04-08T05:31:00.482Z,71.6
2024-04-08T05:32:00.560Z,72.2
2024-04-08T05:33:00.594Z,72.8
2024-04-08T05:34:00.508Z,72.7
2024-04-08T05:35:00.480Z,71.5
2024-04-08T05:36:00.601Z,71.9
2024-04-08T05:37:00.670Z,71.7
2024-04-08T05:38:00.467Z,73.0
2024-04-08T05:39:00.571Z,73.4
2024-04-08T05:40:00.403Z,72.3
2024-04-08T05:41:01.138Z,72.4
2024-04-08T05:42:00.465Z,72.4
2024-04-08T05:43:00.438Z,71.8
2024-04-08T05:44:00.418Z,72.0
2024-04-08T05:45:00.569Z,72.7
2024-04-08T05:46:00.475Z,72.0
2024-04-08T05:47:00.417Z,72.0
2024-04-08T05:48:00.513Z,72.3
2024-04-08T05:49:00.409Z,71.5
2024-04-08T05:50:00.422Z,70.4
2024-04-08T05:51:00.524Z,70.2
2024-04-08T05:52:00.433Z,71.0
2024-04-08T05:53:00.526Z,70.6
2024-04-08T05:54:00.656Z,69.4
2024-04-08T05:55:00.999Z,67.8
2024-04-08T05:56:00.444Z,67.0
2024-04-08T05:57:00.519Z,66.5
2024-04-08T05:58:00.455Z,65.3
2024-04-08T05:59:02.996Z,64.7
2024-04-08T06:00:00.680Z,64.1
2024-04-08T06:01:00.400Z,64.4
2024-04-08T06:02:00.459Z,64.7
2024-04-08T06:03:00.703Z,65.9
2024-04-08T06:04:00.489Z,65.5
2024-04-08T06:05:00.405Z,66.2
2024-04-08T06:06:00.653Z,67.1
2024-04-08T06:07:00.403Z,68.2
2024-04-08T06:08:00.439Z,68.5
2024-04-08T06:09:01.161Z,70.7
2024-04-08T06:10:00.442Z,70.8
2024-04-08T06:11:03.717Z,71.1
2024-04-08T06:12:00.773Z,71.5
2024-04-08T06:13:00.444Z,71.9
2024-04-08T06:14:00.448Z,70.5
2024-04-08T06:15:00.585Z,68.6
2024-04-08T06:16:00.455Z,66.9
2024-04-08T06:17:00.575Z,64.5
2024-04-08T06:18:00.619Z,63.7
2024-04-08T06:19:01.788Z,64.2
2024-04-08T06:20:00.551Z,66.8
2024-04-08T06:21:00.537Z,65.7
2024-04-08T06:22:00.420Z,64.3
2024-04-08T06:23:00.608Z,63.2
2024-04-08T06:24:00.524Z,63.3
2024-04-08T06:25:00.440Z,64.1
2024-04-08T06:26:00.439Z,62.3
2024-04-08T06:27:00.626Z,62.8
2024-04-08T06:28:00.474Z,64.9
2024-04-08T06:29:00.450Z,65.5
2024-04-08T06:30:00.708Z,66.3
2024-04-08T06:31:00.437Z,65.5
2024-04-08T06:32:00.413Z,67.2
2024-04-08T06:33:00.591Z,68.2
2024-04-08T06:34:00.435Z,68.7
2024-04-08T06:35:00.455Z,67.1
2024-04-08T06:36:00.680Z,66.2
2024-04-08T06:37:00.446Z,67.3
2024-04-08T06:38:00.416Z,65.8
2024-04-08T06:39:00.645Z,66.5
2024-04-08T06:40:00.415Z,66.3
2024-04-08T06:41:00.449Z,67.0
2024-04-08T06:42:00.573Z,66.7
2024-04-08T06:43:00.408Z,66.8
2024-04-08T06:44:00.815Z,66.2
2024-04-08T06:45:00.463Z,66.1
2024-04-08T06:46:00.467Z,65.2
2024-04-08T06:47:00.422Z,65.3
2024-04-08T06:48:00.886Z,64.2
2024-04-08T06:49:00.436Z,64.6
2024-04-08T06:50:00.437Z,63.8
2024-04-08T06:51:00.521Z,61.2
2024-04-08T06:52:00.412Z,59.8
2024-04-08T06:53:00.442Z,59.3
2024-04-08T06:54:00.450Z,58.8
2024-04-08T06:55:00.461Z,57.1
2024-04-08T06:56:00.436Z,57.1
2024-04-08T06:57:00.708Z,56.5
2024-04-08T06:58:00.462Z,55.2
2024-04-08T06:59:00.422Z,54.3
2024-04-08T07:00:00.662Z,52.8
2024-04-08T07:01:00.821Z,52.8
2024-04-08T07:02:00.413Z,53.0
2024-04-08T07:03:00.508Z,53.9
2024-04-08T07:04:00.447Z,57.9
2024-04-08T07:05:00.466Z,56.1
2024-04-08T07:06:00.638Z,55.3
2024-04-08T07:07:00.422Z,52.6
2024-04-08T07:08:00.474Z,51.2
2024-04-08T07:09:00.559Z,49.7
2024-04-08T07:10:00.470Z,48.6
2024-04-08T07:11:00.463Z,47.4
2024-04-08T07:12:00.825Z,46.9
2024-04-08T07:13:00.451Z,46.8
2024-04-08T07:14:00.516Z,46.1
2024-04-08T07:15:02.648Z,45.9
2024-04-08T07:16:00.434Z,45.4
2024-04-08T07:17:00.424Z,45.8
2024-04-08T07:18:00.572Z,49.6
2024-04-08T07:19:00.417Z,50.2
2024-04-08T07:20:00.460Z,48.5
2024-04-08T07:21:00.492Z,50.6
2024-04-08T07:22:00.420Z,50.4
2024-04-08T07:23:00.419Z,49.4
2024-04-08T07:24:00.612Z,48.6
2024-04-08T07:25:00.472Z,49.3
2024-04-08T07:26:00.426Z,50.2
2024-04-08T07:27:00.773Z,49.7
2024-04-08T07:28:00.442Z,50.3
2024-04-08T07:29:00.426Z,51.6
2024-04-08T07:30:00.696Z,51.6
2024-04-08T07:31:00.582Z,52.3
2024-04-08T07:32:00.811Z,52.6
2024-04-08T07:33:00.704Z,55.0
2024-04-08T07:34:00.480Z,51.7
2024-04-08T07:35:00.506Z,50.9
2024-04-08T07:36:00.619Z,52.4
2024-04-08T07:37:00.569Z,50.6
2024-04-08T07:38:00.509Z,48.0
2024-04-08T07:39:01.909Z,50.6
2024-04-08T07:40:00.538Z,50.7
2024-04-08T07:41:00.491Z,52.4
2024-04-08T07:42:00.613Z,51.1
2024-04-08T07:43:01.515Z,48.8
2024-04-08T07:44:00.476Z,47.0
2024-04-08T07:45:00.715Z,45.8
2024-04-08T07:46:00.456Z,51.0
2024-04-08T07:47:00.451Z,49.0
2024-04-08T07:48:00.554Z,51.2
2024-04-08T07:49:00.430Z,46.7
2024-04-08T07:50:01.530Z,42.8
2024-04-08T07:51:00.484Z,44.0
2024-04-08T07:52:00.453Z,45.3
2024-04-08T07:53:00.483Z,44.0
2024-04-08T07:54:00.555Z,48.0
2024-04-08T07:55:00.499Z,45.4
2024-04-08T07:56:00.444Z,42.7
2024-04-08T07:57:00.575Z,43.7
2024-04-08T07:58:00.449Z,45.6
2024-04-08T07:59:01.560Z,39.3
2024-04-08T08:00:01.276Z,42.3
2024-04-08T08:01:00.623Z,41.0
2024-04-08T08:02:00.516Z,41.1
2024-04-08T08:03:00.570Z,36.8
2024-04-08T08:04:00.501Z,41.6
2024-04-08T08:05:00.537Z,35.9
2024-04-08T08:06:01.559Z,35.9
2024-04-08T08:07:00.574Z,40.6
2024-04-08T08:08:00.440Z,38.1
2024-04-08T08:09:00.514Z,33.8
2024-04-08T08:10:00.624Z,33.4
2024-04-08T08:11:00.569Z,32.3
2024-04-08T08:12:00.554Z,32.0
2024-04-08T08:13:00.576Z,32.4
2024-04-08T08:14:00.466Z,31.7
2024-04-08T08:15:00.609Z,31.7
2024-04-08T08:16:00.580Z,32.5
2024-04-08T08:17:00.547Z,28.7
2024-04-08T08:18:00.716Z,31.6
2024-04-08T08:19:00.541Z,29.5
2024-04-08T08:20:00.494Z,29.6
2024-04-08T08:21:00.591Z,30.6
2024-04-08T08:22:01.861Z,30.4
2024-04-08T08:23:00.457Z,28.6
2024-04-08T08:24:00.500Z,29.9
2024-04-08T08:25:00.462Z,31.7
2024-04-08T08:26:00.475Z,34.5
2024-04-08T08:27:00.501Z,35.5
2024-04-08T08:28:00.419Z,38.9
2024-04-08T08:29:00.515Z,35.4
2024-04-08T08:30:00.552Z,38.8
2024-04-08T08:31:00.787Z,37.6
2024-04-08T08:32:00.995Z,38.3
2024-04-08T08:33:00.510Z,37.6
2024-04-08T08:34:00.508Z,37.6
2024-04-08T08:35:00.451Z,38.3
2024-04-08T08:36:00.469Z,38.7
2024-04-08T08:37:00.462Z,38.3
2024-04-08T08:38:00.519Z,38.2
2024-04-08T08:39:00.491Z,38.8
2024-04-08T08:40:00.465Z,38.3
2024-04-08T08:41:04.223Z,38.8
2024-04-08T08:42:01.069Z,37.7
2024-04-08T08:43:00.856Z,38.0
2024-04-08T08:44:00.463Z,36.8
2024-04-08T08:45:02.014Z,36.1
2024-04-08T08:46:00.424Z,38.5
2024-04-08T08:47:00.560Z,37.6
2024-04-08T08:48:00.668Z,38.6
2024-04-08T08:49:01.219Z,36.1
2024-04-08T08:50:01.282Z,36.7
2024-04-08T08:51:00.560Z,38.4
2024-04-08T08:52:00.484Z,36.7
2024-04-08T08:53:00.646Z,36.1
2024-04-08T08:54:00.546Z,34.4
2024-04-08T08:55:00.558Z,37.0
2024-04-08T08:56:02.591Z,35.4
2024-04-08T08:57:01.471Z,36.2
2024-04-08T08:58:03.629Z,37.5
2024-04-08T08:59:00.539Z,38.2
2024-04-08T09:00:03.424Z,34.7
2024-04-08T09:01:00.971Z,34.9
2024-04-08T09:02:00.590Z,37.8
2024-04-08T09:03:00.828Z,35.8
2024-04-08T09:04:07.805Z,37.7
2024-04-08T09:05:00.426Z,36.2
2024-04-08T09:06:00.479Z,36.5
2024-04-08T09:07:00.409Z,35.6
2024-04-08T09:08:00.407Z,36.0
2024-04-08T09:09:00.635Z,36.1
2024-04-08T09:10:03.201Z,37.2
2024-04-08T09:11:04.819Z,37.7
2024-04-08T09:12:00.684Z,36.0
2024-04-08T09:13:00.426Z,36.7
2024-04-08T09:14:07.802Z,37.1
2024-04-08T09:15:00.681Z,37.9
2024-04-08T09:16:00.400Z,38.2
2024-04-08T09:17:04.223Z,36.0
2024-04-08T09:18:04.369Z,37.5
2024-04-08T09:19:00.409Z,36.9
2024-04-08T09:20:00.399Z,37.5
2024-04-08T09:21:00.593Z,37.6
2024-04-08T09:22:00.421Z,37.1
2024-04-08T09:23:00.551Z,37.4
2024-04-08T09:24:02.936Z,36.2
2024-04-08T09:25:00.510Z,38.0
2024-04-08T09:26:00.796Z,36.6
2024-04-08T09:27:02.824Z,36.6
2024-04-08T09:28:03.443Z,35.9
2024-04-08T09:29:00.907Z,38.3
2024-04-08T09:30:00.475Z,36.2
2024-04-08T09:31:00.834Z,36.1
2024-04-08T09:32:00.455Z,37.2
2024-04-08T09:33:00.536Z,36.1
2024-04-08T09:34:01.741Z,35.7
2024-04-08T09:35:00.442Z,37.1
2024-04-08T09:36:00.515Z,36.9
2024-04-08T09:37:00.506Z,37.9
2024-04-08T09:38:02.120Z,38.8
2024-04-08T09:39:02.225Z,36.5
2024-04-08T09:40:02.089Z,36.3
2024-04-08T09:41:01.489Z,36.0
2024-04-08T09:42:01.855Z,36.4
2024-04-08T09:43:02.502Z,36.3
2024-04-08T09:44:00.564Z,40.5
2024-04-08T09:45:02.544Z,37.0
2024-04-08T09:46:01.437Z,36.5
2024-04-08T09:47:01.362Z,35.8
2024-04-08T09:48:00.479Z,37.3
2024-04-08T09:49:03.822Z,35.7
2024-04-08T09:50:05.145Z,36.0
2024-04-08T09:51:00.895Z,33.5
2024-04-08T09:52:01.657Z,34.5
2024-04-08T09:53:00.499Z,36.3
2024-04-08T09:54:01.552Z,32.9
2024-04-08T09:55:00.466Z,36.0
2024-04-08T09:56:07.681Z,34.3
2024-04-08T09:57:02.982Z,34.7
2024-04-08T09:58:01.700Z,33.8
2024-04-08T10:00:01.657Z,35.1
2024-04-08T10:01:01.932Z,36.0
2024-04-08T10:02:03.175Z,37.6
2024-04-08T10:03:04.234Z,37.7
2024-04-08T10:04:02.348Z,33.8
2024-04-08T10:05:03.147Z,34.4
2024-04-08T10:06:00.682Z,34.0
2024-04-08T10:07:00.521Z,33.4
2024-04-08T10:08:03.520Z,33.7
2024-04-08T10:09:01.400Z,33.3
2024-04-08T10:10:00.777Z,33.9
2024-04-08T10:11:00.692Z,33.2
2024-04-08T10:12:02.100Z,34.4
2024-04-08T10:13:00.603Z,34.6
2024-04-08T10:14:00.433Z,34.6
2024-04-08T10:15:16.375Z,32.9
2024-04-08T10:16:16.692Z,32.5
2024-04-08T10:17:00.699Z,32.1
2024-04-08T10:18:00.601Z,32.0
2024-04-08T10:19:00.440Z,31.8
2024-04-08T10:20:03.500Z,30.8
2024-04-08T10:21:01.366Z,29.9
2024-04-08T10:22:01.036Z,30.5
2024-04-08T10:23:00.488Z,32.1
2024-04-08T10:24:00.507Z,30.5
2024-04-08T10:25:00.458Z,30.8
2024-04-08T10:26:00.459Z,31.9
2024-04-08T10:27:01.602Z,31.7
2024-04-08T10:28:08.745Z,30.2
2024-04-08T10:29:00.608Z,31.2
2024-04-08T10:30:00.482Z,27.9
2024-04-08T10:31:00.417Z,29.0
2024-04-08T10:32:00.404Z,31.4
2024-04-08T10:33:00.940Z,31.0
2024-04-08T10:34:00.532Z,30.1
2024-04-08T10:35:00.432Z,31.6
2024-04-08T10:36:01.821Z,32.7
2024-04-08T10:37:00.454Z,27.9
2024-04-08T10:38:00.419Z,28.2
2024-04-08T10:39:00.865Z,27.6
2024-04-08T10:40:00.437Z,27.5
2024-04-08T10:41:03.932Z,28.4
2024-04-08T10:42:11.548Z,27.7
2024-04-08T10:43:00.548Z,27.7
2024-04-08T10:44:01.010Z,29.3
2024-04-08T10:45:00.599Z,28.1
2024-04-08T10:46:02.044Z,26.3
2024-04-08T10:47:00.478Z,28.6
2024-04-08T10:48:03.908Z,27.3
2024-04-08T10:49:04.903Z,27.1
2024-04-08T10:50:00.436Z,28.1
2024-04-08T10:51:01.094Z,29.7
2024-04-08T10:52:01.124Z,27.4
2024-04-08T10:53:01.451Z,29.4
2024-04-08T10:54:00.464Z,27.7
2024-04-08T10:55:00.409Z,27.2
2024-04-08T10:56:00.558Z,26.8
2024-04-08T10:57:00.517Z,29.5
2024-04-08T10:58:00.686Z,28.1
2024-04-08T10:59:00.490Z,26.5
2024-04-08T11:00:00.876Z,24.3
2024-04-08T11:01:00.605Z,25.2
2024-04-08T11:02:00.468Z,26.7
2024-04-08T11:03:00.544Z,29.3
2024-04-08T11:04:00.449Z,28.3
2024-04-08T11:05:00.955Z,29.4
2024-04-08T11:06:00.726Z,30.1
2024-04-08T11:07:00.750Z,28.3
2024-04-08T11:08:00.409Z,23.6
2024-04-08T11:09:00.501Z,25.1
2024-04-08T11:10:01.394Z,27.9
2024-04-08T11:11:00.503Z,29.8
2024-04-08T11:12:03.269Z,22.7
2024-04-08T11:13:00.423Z,25.3
2024-04-08T11:14:04.028Z,24.5
2024-04-08T11:15:00.966Z,24.2
2024-04-08T11:16:00.406Z,24.4
2024-04-08T11:17:05.949Z,22.5
2024-04-08T11:18:00.815Z,23.6
2024-04-08T11:19:00.957Z,23.0
2024-04-08T11:20:02.381Z,28.8
2024-04-08T11:21:00.679Z,25.5
2024-04-08T11:22:00.447Z,23.1
2024-04-08T11:23:04.004Z,24.4
2024-04-08T11:24:00.435Z,24.4
2024-04-08T11:25:00.667Z,23.6
2024-04-08T11:26:00.405Z,25.1
2024-04-08T11:27:03.824Z,23.2
2024-04-08T11:28:00.547Z,28.3
2024-04-08T11:29:01.080Z,26.0
2024-04-08T11:30:00.557Z,28.2
2024-04-08T11:31:00.413Z,26.0
2024-04-08T11:32:00.475Z,24.0
2024-04-08T11:33:00.459Z,24.1
2024-04-08T11:34:00.433Z,23.1
2024-04-08T11:35:00.451Z,24.8
2024-04-08T11:36:00.622Z,27.1
2024-04-08T11:37:03.993Z,23.3
2024-04-08T11:38:09.969Z,22.3
2024-04-08T11:39:00.588Z,22.8
2024-04-08T11:40:02.426Z,22.8
2024-04-08T11:41:01.230Z,23.4
2024-04-08T11:42:00.435Z,23.0
2024-04-08T11:43:00.839Z,22.4
2024-04-08T11:44:00.664Z,23.0
2024-04-08T11:45:06.519Z,20.7
2024-04-08T11:46:03.766Z,23.0
2024-04-08T11:47:00.634Z,21.4
2024-04-08T11:48:00.741Z,22.2
2024-04-08T11:49:00.610Z,23.9
2024-04-08T11:50:00.642Z,22.5
2024-04-08T11:51:00.737Z,23.0
2024-04-08T11:52:00.696Z,22.9
2024-04-08T11:53:00.632Z,22.9
2024-04-08T11:54:00.687Z,23.2
2024-04-08T11:55:02.695Z,25.1
2024-04-08T11:56:00.650Z,24.2
2024-04-08T11:57:00.692Z,22.3
2024-04-08T11:58:00.574Z,24.9
2024-04-08T11:59:00.954Z,23.0
2024-04-08T12:00:00.800Z,23.0
2024-04-08T12:01:00.732Z,21.9
2024-04-08T12:02:00.522Z,25.8
2024-04-08T12:03:00.631Z,25.9
2024-04-08T12:04:00.658Z,24.8
2024-04-08T12:05:00.564Z,26.4
2024-04-08T12:06:00.855Z,23.4
2024-04-08T12:07:01.566Z,25.0
2024-04-08T12:08:00.805Z,23.9
2024-04-08T12:09:00.935Z,22.9
2024-04-08T12:10:00.572Z,25.6
2024-04-08T12:11:00.523Z,22.3
2024-04-08T12:12:00.639Z,22.0
2024-04-08T12:13:13.137Z,23.1
2024-04-08T12:14:00.656Z,22.3
2024-04-08T12:15:00.782Z,23.2
2024-04-08T12:16:00.767Z,24.1
2024-04-08T12:17:00.639Z,23.7
2024-04-08T12:18:00.644Z,23.4
2024-04-08T12:19:00.535Z,25.0
2024-04-08T12:20:00.530Z,24.7
2024-04-08T12:21:00.602Z,23.6
2024-04-08T12:22:00.604Z,24.5
2024-04-08T12:23:00.484Z,25.1
2024-04-08T12:24:00.707Z,25.0
2024-04-08T12:25:00.460Z,27.9
2024-04-08T12:26:00.579Z,25.5
2024-04-08T12:27:00.522Z,24.0
2024-04-08T12:28:00.467Z,26.5
2024-04-08T12:29:00.440Z,25.1
2024-04-08T12:30:00.560Z,24.2
2024-04-08T12:31:00.399Z,23.9
2024-04-08T12:32:00.433Z,26.1
2024-04-08T12:33:00.440Z,21.1
2024-04-08T12:34:00.475Z,21.9
2024-04-08T12:35:00.419Z,22.9
2024-04-08T12:36:00.493Z,25.4
2024-04-08T12:37:01.015Z,24.1
2024-04-08T12:38:00.475Z,24.8
2024-04-08T12:39:00.469Z,26.0
2024-04-08T12:40:00.432Z,26.8
2024-04-08T12:41:00.430Z,23.5
2024-04-08T12:42:00.477Z,25.8
2024-04-08T12:43:00.440Z,23.3
2024-04-08T12:44:00.465Z,23.9
2024-04-08T12:45:07.937Z,26.7
2024-04-08T12:46:01.648Z,26.1
2024-04-08T12:47:00.443Z,24.2
2024-04-08T12:48:00.698Z,27.2
2024-04-08T12:49:00.529Z,26.9
2024-04-08T12:50:00.423Z,26.5
2024-04-08T12:51:00.455Z,26.3
2024-04-08T12:52:00.462Z,26.9
2024-04-08T12:53:00.646Z,26.2
2024-04-08T12:54:00.571Z,28.7
2024-04-08T12:55:00.528Z,28.3
2024-04-08T12:56:00.605Z,26.5
2024-04-08T12:57:00.711Z,27.3
2024-04-08T12:58:00.414Z,27.6
2024-04-08T12:59:00.540Z,27.6
2024-04-08T13:00:00.732Z,27.0
2024-04-08T13:01:00.540Z,27.2
2024-04-08T13:02:00.439Z,27.0
2024-04-08T13:03:00.507Z,30.8
2024-04-08T13:04:00.491Z,26.8
2024-04-08T13:05:00.407Z,27.5
2024-04-08T13:06:00.889Z,26.7
2024-04-08T13:07:00.510Z,29.4
2024-04-08T13:08:00.578Z,27.8
2024-04-08T13:09:00.603Z,26.3
2024-04-08T13:10:00.523Z,27.4
2024-04-08T13:11:00.477Z,27.3
2024-04-08T13:12:00.551Z,28.1
2024-04-08T13:13:00.410Z,27.0
2024-04-08T13:14:00.434Z,25.8
2024-04-08T13:15:00.460Z,26.1
2024-04-08T13:16:00.535Z,26.2
2024-04-08T13:17:00.662Z,26.0
2024-04-08T13:18:00.581Z,24.4
2024-04-08T13:19:00.488Z,25.6
2024-04-08T13:20:00.470Z,27.0
2024-04-08T13:21:00.520Z,27.5
2024-04-08T13:22:00.440Z,25.3
2024-04-08T13:23:00.416Z,26.2
2024-04-08T13:24:00.461Z,28.5
2024-04-08T13:25:00.415Z,26.9
2024-04-08T13:26:00.531Z,26.5